createdAt,value
2022-11-19T00:02:01.054Z,-0.20
2022-11-19T00:04:29.000Z,-0.28
2022-11-19T00:06:56.871Z,-0.30
2022-11-19T00:09:24.653Z,-0.30
2022-11-19T00:12:11.025Z,-0.30
2022-11-19T00:14:38.771Z,-0.32
2022-11-19T00:17:06.482Z,-0.40
2022-11-19T00:19:34.183Z,-0.36
2022-11-19T00:22:01.917Z,-0.30
2022-11-19T00:24:29.725Z,-0.30
2022-11-19T00:26:57.418Z,-0.30
2022-11-19T00:29:25.098Z,-0.30
2022-11-19T00:31:52.795Z,-0.30
2022-11-19T00:34:20.615Z,-0.30
2022-11-19T00:36:48.391Z,-0.30
2022-11-19T00:39:16.309Z,-0.30
2022-11-19T00:41:43.985Z,-0.30
2022-11-19T00:44:11.623Z,-0.30
2022-11-19T00:46:39.371Z,-0.34
2022-11-19T00:49:07.154Z,-0.40
2022-11-19T00:51:34.843Z,-0.40
2022-11-19T00:54:02.681Z,-0.46
2022-11-19T00:56:30.414Z,-0.44
2022-11-19T00:58:58.074Z,-0.40
2022-11-19T01:01:26.576Z,-0.40
2022-11-19T01:03:54.778Z,-0.42
2022-11-19T01:06:25.669Z,-0.50
2022-11-19T01:08:54.438Z,-0.50
2022-11-19T01:11:28.719Z,-0.50
2022-11-19T01:13:57.403Z,-0.50
2022-11-19T01:16:29.535Z,-0.50
2022-11-19T01:18:58.447Z,-0.50
2022-11-19T01:21:31.032Z,-0.50
2022-11-19T01:24:00.183Z,-0.50
2022-11-19T01:26:28.322Z,-0.50
2022-11-19T01:28:56.782Z,-0.60
2022-11-19T01:31:29.485Z,-0.60
2022-11-19T01:33:58.868Z,-0.60
2022-11-19T01:36:29.894Z,-0.60
2022-11-19T01:38:58.953Z,-0.56
2022-11-19T01:41:30.775Z,-0.52
2022-11-19T01:44:46.804Z,-0.50
2022-11-19T01:47:14.600Z,-0.50
2022-11-19T01:49:42.345Z,-0.40
2022-11-19T01:52:10.702Z,-0.40
2022-11-19T01:54:50.615Z,-0.40
2022-11-19T01:57:18.710Z,-0.38
2022-11-19T01:59:52.621Z,-0.38
2022-11-19T02:02:22.923Z,-0.40
2022-11-19T02:04:52.576Z,-0.40
2022-11-19T02:07:26.260Z,-0.40
2022-11-19T02:09:54.051Z,-0.40
2022-11-19T02:13:02.274Z,-0.40
2022-11-19T02:15:40.841Z,-0.40
2022-11-19T02:18:45.123Z,-0.32
2022-11-19T02:21:18.486Z,-0.30
2022-11-19T02:24:18.220Z,-0.30
2022-11-19T02:27:08.323Z,-0.30
2022-11-19T02:30:04.911Z,-0.38
2022-11-19T02:33:03.476Z,-0.30
2022-11-19T02:35:41.666Z,-0.30
2022-11-19T02:38:49.727Z,-0.36
2022-11-19T02:41:46.874Z,-0.40
2022-11-19T02:44:50.086Z,-0.40
2022-11-19T02:47:29.909Z,-0.40
2022-11-19T02:50:08.488Z,-0.40
2022-11-19T02:52:39.233Z,-0.40
2022-11-19T02:55:07.788Z,-0.40
2022-11-19T02:57:36.980Z,-0.40
2022-11-19T03:00:25.801Z,-0.48
2022-11-19T03:03:26.595Z,-0.50
2022-11-19T03:06:02.353Z,-0.50
2022-11-19T03:08:30.365Z,-0.58
2022-11-19T03:11:13.022Z,-0.60
2022-11-19T03:14:10.966Z,-0.60
2022-11-19T03:16:53.869Z,-0.60
2022-11-19T03:19:34.682Z,-0.60
2022-11-19T03:22:30.055Z,-0.60
2022-11-19T03:25:22.716Z,-0.60
2022-11-19T03:27:57.849Z,-0.58
2022-11-19T03:30:28.206Z,-0.50
2022-11-19T03:33:12.444Z,-0.40
2022-11-19T03:35:49.710Z,-0.40
2022-11-19T03:38:30.679Z,-0.40
2022-11-19T03:41:00.314Z,-0.40
2022-11-19T03:43:34.486Z,-0.40
2022-11-19T03:46:06.329Z,-0.50
2022-11-19T03:48:37.030Z,-0.50
2022-11-19T03:51:13.505Z,-0.50
2022-11-19T03:53:41.749Z,-0.50
2022-11-19T03:56:15.168Z,-0.50
2022-11-19T03:58:46.319Z,-0.60
2022-11-19T04:01:14.788Z,-0.60
2022-11-19T04:04:02.376Z,-0.64
2022-11-19T04:06:30.091Z,-0.62
2022-11-19T04:08:57.696Z,-0.70
2022-11-19T04:13:52.200Z,-0.66
2022-11-19T04:16:19.875Z,-0.62
2022-11-19T04:18:47.543Z,-0.62
2022-11-19T04:21:15.186Z,-0.70
2022-11-19T04:23:42.953Z,-0.70
2022-11-19T04:26:10.720Z,-0.64
2022-11-19T04:28:38.388Z,-0.64
2022-11-19T04:31:06.471Z,-0.70
2022-11-19T04:33:34.124Z,-0.70
2022-11-19T04:36:01.896Z,-0.76
2022-11-19T04:38:29.589Z,-0.76
2022-11-19T04:40:57.307Z,-0.80
2022-11-19T04:43:25.288Z,-0.80
2022-11-19T04:45:53.008Z,-0.80
2022-11-19T04:48:20.597Z,-0.80
2022-11-19T04:50:48.343Z,-0.88
2022-11-19T04:53:15.927Z,-0.90
2022-11-19T04:55:43.610Z,-0.90
2022-11-19T04:58:11.261Z,-0.90
2022-11-19T05:00:39.117Z,-0.90
2022-11-19T05:03:06.919Z,-0.90
2022-11-19T05:05:34.655Z,-0.90
2022-11-19T05:08:02.416Z,-0.90
2022-11-19T05:10:30.147Z,-0.92
2022-11-19T05:12:57.846Z,-0.92
2022-11-19T05:15:25.662Z,-0.90
2022-11-19T05:17:53.305Z,-0.90
2022-11-19T05:20:21.052Z,-0.90
2022-11-19T05:22:48.694Z,-0.86
2022-11-19T05:25:16.713Z,-0.84
2022-11-19T05:27:44.700Z,-0.90
2022-11-19T05:30:12.913Z,-0.90
2022-11-19T05:32:40.648Z,-0.88
2022-11-19T05:35:09.267Z,-0.90
2022-11-19T05:37:36.993Z,-0.90
2022-11-19T05:40:05.809Z,-0.90
2022-11-19T05:42:33.490Z,-0.90
2022-11-19T05:45:01.232Z,-0.90
2022-11-19T05:47:28.977Z,-0.94
2022-11-19T05:49:56.663Z,-1.00
2022-11-19T05:52:24.331Z,-1.00
2022-11-19T05:54:51.997Z,-1.00
2022-11-19T05:57:19.667Z,-1.00
2022-11-19T05:59:47.349Z,-1.00
2022-11-19T06:02:15.045Z,-1.00
2022-11-19T06:04:42.811Z,-1.00
2022-11-19T06:07:10.573Z,-1.00
2022-11-19T06:09:39.002Z,-1.02
2022-11-19T06:12:07.368Z,-1.00
2022-11-19T06:14:35.095Z,-1.10
2022-11-19T06:17:02.800Z,-1.10
2022-11-19T06:19:30.585Z,-1.10
2022-11-19T06:21:58.584Z,-1.20
2022-11-19T06:24:26.389Z,-1.20
2022-11-19T06:26:54.095Z,-1.20
2022-11-19T06:29:22.073Z,-1.20
2022-11-19T06:31:49.921Z,-1.20
2022-11-19T06:34:17.589Z,-1.20
2022-11-19T06:36:50.375Z,-1.18
2022-11-19T06:39:19.357Z,-1.12
2022-11-19T06:41:48.821Z,-1.10
2022-11-19T06:44:17.303Z,-1.10
2022-11-19T06:46:45.010Z,-1.08
2022-11-19T06:49:18.432Z,-1.06
2022-11-19T06:51:47.889Z,-1.08
2022-11-19T06:54:15.583Z,-1.10
2022-11-19T06:56:43.305Z,-1.10
2022-11-19T06:59:10.973Z,-1.10
2022-11-19T07:01:38.680Z,-1.10
2022-11-19T07:04:06.281Z,-1.10
2022-11-19T07:06:34.015Z,-1.14
2022-11-19T07:09:01.834Z,-1.20
2022-11-19T07:11:29.755Z,-1.20
2022-11-19T07:13:57.828Z,-1.20
2022-11-19T07:16:34.566Z,-1.20
2022-11-19T07:19:06.585Z,-1.20
2022-11-19T07:21:35.726Z,-1.20
2022-11-19T07:24:07.859Z,-1.20
2022-11-19T07:26:37.747Z,-1.20
2022-11-19T07:29:08.192Z,-1.20
2022-11-19T07:31:36.019Z,-1.20
2022-11-19T07:34:08.007Z,-1.14
2022-11-19T07:36:37.028Z,-1.20
2022-11-19T07:39:05.818Z,-1.16
2022-11-19T07:41:52.222Z,-1.20
2022-11-19T07:44:20.228Z,-1.18
2022-11-19T07:46:47.967Z,-1.20
2022-11-19T07:49:15.696Z,-1.30
2022-11-19T07:51:44.653Z,-1.32
2022-11-19T07:54:14.250Z,-1.40
2022-11-19T07:56:42.437Z,-1.40
2022-11-19T07:59:10.877Z,-1.40
2022-11-19T08:01:39.047Z,-1.40
2022-11-19T08:04:06.908Z,-1.36
2022-11-19T08:06:34.889Z,-1.30
2022-11-19T08:09:05.088Z,-1.20
2022-11-19T08:11:32.790Z,-1.10
2022-11-19T08:14:01.919Z,-1.10
2022-11-19T08:16:50.708Z,-1.00
2022-11-19T08:19:19.056Z,-0.90
2022-11-19T08:21:48.021Z,-0.90
2022-11-19T08:24:20.592Z,-0.80
2022-11-19T08:26:50.348Z,-0.80
2022-11-19T08:29:23.339Z,-0.70
2022-11-19T08:31:52.108Z,-0.60
2022-11-19T08:34:20.226Z,-0.60
2022-11-19T08:36:48.268Z,-0.58
2022-11-19T08:39:15.972Z,-0.50
2022-11-19T08:42:03.531Z,-0.50
2022-11-19T08:44:31.241Z,-0.50
2022-11-19T08:46:59.942Z,-0.50
2022-11-19T08:49:27.647Z,-0.50
2022-11-19T08:51:57.611Z,-0.50
2022-11-19T08:54:25.519Z,-0.50
2022-11-19T08:56:53.351Z,-0.40
2022-11-19T08:59:22.074Z,-0.40
2022-11-19T09:01:50.604Z,-0.40
2022-11-19T09:04:18.970Z,-0.30
2022-11-19T09:06:46.949Z,-0.20
2022-11-19T09:09:14.800Z,-0.12
2022-11-19T09:11:43.240Z,-0.10
2022-11-19T09:14:11.219Z,-0.10
2022-11-19T09:16:38.917Z,-0.10
2022-11-19T09:19:08.223Z,-0.14
2022-11-19T09:21:36.856Z,-0.20
2022-11-19T09:24:05.269Z,-0.20
2022-11-19T09:26:33.903Z,-0.20
2022-11-19T09:29:01.941Z,-0.22
2022-11-19T09:31:30.294Z,-0.30
2022-11-19T09:33:58.270Z,-0.30
2022-11-19T09:36:25.924Z,-0.30
2022-11-19T09:38:58.391Z,-0.30
2022-11-19T09:41:38.230Z,-0.30
2022-11-19T09:44:46.808Z,-0.30
2022-11-19T09:47:56.651Z,-0.40
2022-11-19T09:50:48.995Z,-0.40
2022-11-19T09:53:24.291Z,-0.48
2022-11-19T09:55:53.971Z,-0.50
2022-11-19T09:58:41.559Z,-0.50
2022-11-19T10:01:19.354Z,-0.50
2022-11-19T10:03:53.762Z,-0.50
2022-11-19T10:07:03.753Z,-0.50
2022-11-19T10:09:51.559Z,-0.60
2022-11-19T10:12:28.191Z,-0.52
2022-11-19T10:15:30.920Z,-0.50
2022-11-19T10:18:11.492Z,-0.40
2022-11-19T10:21:08.923Z,-0.38
2022-11-19T10:23:49.625Z,-0.30
2022-11-19T10:26:30.574Z,-0.30
2022-11-19T10:29:10.683Z,-0.20
2022-11-19T10:31:45.379Z,-0.22
2022-11-19T10:34:36.177Z,-0.24
2022-11-19T10:37:16.954Z,-0.28
2022-11-19T10:39:59.693Z,-0.28
2022-11-19T10:42:40.011Z,-0.20
2022-11-19T10:45:25.325Z,-0.20
2022-11-19T10:48:09.357Z,-0.20
2022-11-19T10:50:37.955Z,-0.16
2022-11-19T10:53:23.315Z,-0.10
2022-11-19T10:55:57.109Z,-0.10
2022-11-19T10:58:38.172Z,-0.10
2022-11-19T11:01:31.296Z,-0.20
2022-11-19T11:04:22.483Z,-0.10
2022-11-19T11:07:04.103Z,0.00
2022-11-19T11:09:40.492Z,0.10
2022-11-19T11:12:37.260Z,0.18
2022-11-19T11:15:22.400Z,0.20
2022-11-19T11:18:04.850Z,0.20
2022-11-19T11:20:33.718Z,0.22
2022-11-19T11:23:35.034Z,0.28
2022-11-19T11:26:12.485Z,0.20
2022-11-19T11:29:05.436Z,0.20
2022-11-19T11:31:47.743Z,0.20
2022-11-19T11:34:27.543Z,0.30
2022-11-19T11:36:57.384Z,0.30
2022-11-19T11:39:36.664Z,0.36
2022-11-19T11:42:17.264Z,0.38
2022-11-19T11:45:07.483Z,0.40
2022-11-19T11:47:39.557Z,0.40
2022-11-19T11:50:17.121Z,0.40
2022-11-19T11:52:49.468Z,0.40
2022-11-19T11:55:23.295Z,0.40
2022-11-19T11:57:53.010Z,0.40
2022-11-19T12:00:41.285Z,0.40
2022-11-19T12:03:18.897Z,0.40
2022-11-19T12:06:12.312Z,0.40
2022-11-19T12:09:14.100Z,0.40
2022-11-19T12:12:04.041Z,0.50
2022-11-19T12:14:47.294Z,0.50
2022-11-19T12:17:27.903Z,0.62
2022-11-19T12:20:21.507Z,0.68
2022-11-19T12:23:23.219Z,0.68
2022-11-19T12:26:25.943Z,0.70
2022-11-19T12:29:21.252Z,0.70
2022-11-19T12:32:13.766Z,0.62
2022-11-19T12:35:32.178Z,0.60
2022-11-19T12:38:06.083Z,0.60
2022-11-19T12:40:39.643Z,0.50
2022-11-19T12:43:41.623Z,0.50
2022-11-19T12:46:16.592Z,0.40
2022-11-19T12:48:54.355Z,0.40
2022-11-19T12:51:41.294Z,0.40
2022-11-19T12:54:58.107Z,0.40
2022-11-19T12:57:40.902Z,0.40
2022-11-19T13:00:21.593Z,0.34
2022-11-19T13:02:54.969Z,0.36
2022-11-19T13:05:50.929Z,0.40
2022-11-19T13:08:32.443Z,0.40
2022-11-19T13:11:44.711Z,0.40
2022-11-19T13:14:38.367Z,0.40
2022-11-19T13:17:23.495Z,0.40
2022-11-19T13:20:04.735Z,0.44
2022-11-19T13:22:45.042Z,0.48
2022-11-19T13:25:21.713Z,0.46
2022-11-19T13:27:52.533Z,0.48
2022-11-19T13:30:26.659Z,0.40
2022-11-19T13:33:16.359Z,0.40
2022-11-19T13:36:00.308Z,0.40
2022-11-19T13:38:48.395Z,0.40
2022-11-19T13:41:21.992Z,0.40
2022-11-19T13:44:08.850Z,0.40
2022-11-19T13:46:55.085Z,0.40
2022-11-19T13:49:30.366Z,0.40
2022-11-19T13:52:28.387Z,0.40
2022-11-19T13:54:59.721Z,0.40
2022-11-19T13:57:42.712Z,0.36
2022-11-19T14:00:28.774Z,0.30
2022-11-19T14:03:38.682Z,0.30
2022-11-19T14:06:28.355Z,0.20
2022-11-19T14:09:14.057Z,0.20
2022-11-19T14:12:25.645Z,0.10
2022-11-19T14:15:44.579Z,0.10
2022-11-19T14:18:54.500Z,0.00
2022-11-19T14:22:10.740Z,0.00
2022-11-19T14:24:57.085Z,-0.04
2022-11-19T14:27:26.437Z,-0.10
2022-11-19T14:29:59.969Z,-0.10
2022-11-19T14:32:52.848Z,-0.10
2022-11-19T14:35:26.409Z,-0.12
2022-11-19T14:38:11.990Z,-0.12
2022-11-19T14:40:44.007Z,-0.20
2022-11-19T14:43:30.509Z,-0.20
2022-11-19T14:46:09.160Z,-0.20
2022-11-19T14:48:39.918Z,-0.22
2022-11-19T14:51:15.550Z,-0.30
2022-11-19T14:54:04.820Z,-0.30
2022-11-19T14:56:36.972Z,-0.30
2022-11-19T14:59:20.715Z,-0.34
2022-11-19T15:02:05.184Z,-0.40
2022-11-19T15:04:49.665Z,-0.40
2022-11-19T15:07:34.708Z,-0.42
2022-11-19T15:10:14.525Z,-0.50
2022-11-19T15:12:44.979Z,-0.50
2022-11-19T15:15:24.595Z,-0.52
2022-11-19T15:18:02.355Z,-0.60
2022-11-19T15:20:39.301Z,-0.60
2022-11-19T15:23:44.287Z,-0.60
2022-11-19T15:26:57.972Z,-0.70
2022-11-19T15:30:00.570Z,-0.70
2022-11-19T15:32:46.748Z,-0.70
2022-11-19T15:35:54.984Z,-0.70
2022-11-19T15:38:22.638Z,-0.70
2022-11-19T15:40:56.490Z,-0.70
2022-11-19T15:43:40.131Z,-0.70
2022-11-19T15:46:17.211Z,-0.72
2022-11-19T15:49:10.304Z,-0.80
2022-11-19T15:52:18.100Z,-0.80
2022-11-19T15:54:46.154Z,-0.84
2022-11-19T15:57:16.827Z,-0.86
2022-11-19T15:59:57.849Z,-0.84
2022-11-19T16:02:42.152Z,-0.86
2022-11-19T16:05:29.589Z,-0.84
2022-11-19T16:08:03.652Z,-0.80
2022-11-19T16:10:35.452Z,-0.80
2022-11-19T16:13:39.769Z,-0.80
2022-11-19T16:16:47.814Z,-0.80
2022-11-19T16:19:17.664Z,-0.80
2022-11-19T16:22:00.607Z,-0.80
2022-11-19T16:24:49.715Z,-0.90
2022-11-19T16:27:24.621Z,-0.90
2022-11-19T16:29:52.728Z,-1.00
2022-11-19T16:32:25.288Z,-1.00
2022-11-19T16:34:53.202Z,-1.10
2022-11-19T16:37:22.338Z,-1.10
2022-11-19T16:39:53.267Z,-1.10
2022-11-19T16:42:29.133Z,-1.10
2022-11-19T16:45:18.663Z,-1.14
2022-11-19T16:47:58.846Z,-1.20
2022-11-19T16:50:35.986Z,-1.20
2022-11-19T16:53:06.517Z,-1.30
2022-11-19T16:55:34.538Z,-1.30
2022-11-19T16:58:25.553Z,-1.30
2022-11-19T17:00:59.381Z,-1.34
2022-11-19T17:03:36.388Z,-1.40
2022-11-19T17:06:07.397Z,-1.40
2022-11-19T17:08:38.309Z,-1.50
2022-11-19T17:12:02.760Z,-1.50
2022-11-19T17:14:30.256Z,-1.60
2022-11-19T17:16:57.905Z,-1.64
2022-11-19T17:19:35.690Z,-1.70
2022-11-19T17:22:18.167Z,-1.70
2022-11-19T17:24:46.616Z,-1.74
2022-11-19T17:27:35.884Z,-1.80
2022-11-19T17:30:21.978Z,-1.80
2022-11-19T17:32:55.655Z,-1.80
2022-11-19T17:35:44.378Z,-1.76
2022-11-19T17:38:17.501Z,-1.70
2022-11-19T17:40:58.219Z,-1.62
2022-11-19T17:43:54.881Z,-1.60
2022-11-19T17:46:25.301Z,-1.60
2022-11-19T17:48:53.687Z,-1.60
2022-11-19T17:51:25.471Z,-1.60
2022-11-19T17:53:55.625Z,-1.68
2022-11-19T17:56:29.096Z,-1.70
2022-11-19T17:58:58.972Z,-1.70
2022-11-19T18:01:26.768Z,-1.70
2022-11-19T18:03:54.700Z,-1.80
2022-11-19T18:06:22.319Z,-1.80
2022-11-19T18:08:49.973Z,-1.90
2022-11-19T18:11:25.938Z,-1.90
2022-11-19T18:14:01.755Z,-1.92
2022-11-19T18:16:37.566Z,-2.00
2022-11-19T18:19:23.327Z,-2.10
2022-11-19T18:21:51.819Z,-2.20
2022-11-19T18:24:19.731Z,-2.20
2022-11-19T18:26:47.617Z,-2.22
2022-11-19T18:29:15.680Z,-2.30
2022-11-19T18:31:48.411Z,-2.30
2022-11-19T18:34:21.749Z,-2.40
2022-11-19T18:36:50.118Z,-2.40
2022-11-19T18:39:17.768Z,-2.50
2022-11-19T18:41:45.362Z,-2.50
2022-11-19T18:44:45.494Z,-2.52
2022-11-19T18:47:14.964Z,-2.60
2022-11-19T18:49:42.663Z,-2.60
2022-11-19T18:52:16.343Z,-2.70
2022-11-19T18:54:44.752Z,-2.68
2022-11-19T18:57:13.357Z,-2.70
2022-11-19T18:59:41.697Z,-2.70
2022-11-19T19:02:10.780Z,-2.70
2022-11-19T19:04:38.852Z,-2.70
2022-11-19T19:07:06.677Z,-2.62
2022-11-19T19:09:34.709Z,-2.60
2022-11-19T19:12:18.394Z,-2.50
2022-11-19T19:14:49.348Z,-2.50
2022-11-19T19:17:18.791Z,-2.50
2022-11-19T19:19:46.983Z,-2.56
2022-11-19T19:22:14.897Z,-2.60
2022-11-19T19:24:42.677Z,-2.60
2022-11-19T19:27:11.158Z,-2.60
2022-11-19T19:29:39.724Z,-2.60
2022-11-19T19:32:07.705Z,-2.60
2022-11-19T19:34:36.394Z,-2.60
2022-11-19T19:37:05.256Z,-2.60
2022-11-19T19:39:33.409Z,-2.62
2022-11-19T19:42:01.145Z,-2.62
2022-11-19T19:44:28.866Z,-2.64
2022-11-19T19:46:56.928Z,-2.60
2022-11-19T19:49:25.110Z,-2.58
2022-11-19T19:51:53.061Z,-2.58
2022-11-19T19:54:20.884Z,-2.60
2022-11-19T19:56:48.836Z,-2.60
2022-11-19T19:59:16.712Z,-2.60
2022-11-19T20:01:50.617Z,-2.60
2022-11-19T20:04:18.826Z,-2.60
2022-11-19T20:06:48.172Z,-2.60
2022-11-19T20:09:16.060Z,-2.70
2022-11-19T20:11:43.841Z,-2.70
2022-11-19T20:14:11.683Z,-2.80
2022-11-19T20:16:41.724Z,-2.80
2022-11-19T20:19:14.577Z,-2.90
2022-11-19T20:21:43.102Z,-2.94
2022-11-19T20:24:13.336Z,-3.00
2022-11-19T20:26:42.760Z,-3.02
2022-11-19T20:29:13.979Z,-3.10
2022-11-19T20:31:48.199Z,-3.10
2022-11-19T20:34:16.843Z,-3.10
2022-11-19T20:36:45.487Z,-3.10
2022-11-19T20:39:13.268Z,-3.10
2022-11-19T20:42:00.406Z,-3.10
2022-11-19T20:44:28.188Z,-3.10
2022-11-19T20:46:59.303Z,-3.10
2022-11-19T20:49:34.702Z,-3.04
2022-11-19T20:52:03.693Z,-3.00
2022-11-19T20:54:32.169Z,-3.00
2022-11-19T20:57:01.082Z,-3.00
2022-11-19T20:59:29.494Z,-3.00
2022-11-19T21:01:58.079Z,-3.10
2022-11-19T21:04:28.682Z,-3.10
2022-11-19T21:06:56.534Z,-3.10
2022-11-19T21:09:24.939Z,-3.20
2022-11-19T21:11:53.481Z,-3.20
2022-11-19T21:14:21.538Z,-3.28
2022-11-19T21:16:49.476Z,-3.30
2022-11-19T21:19:17.205Z,-3.30
2022-11-19T21:21:45.696Z,-3.30
2022-11-19T21:24:13.697Z,-3.30
2022-11-19T21:26:41.363Z,-3.38
2022-11-19T21:29:09.150Z,-3.40
2022-11-19T21:31:45.968Z,-3.40
2022-11-19T21:34:20.710Z,-3.50
2022-11-19T21:36:49.990Z,-3.50
2022-11-19T21:39:19.481Z,-3.50
2022-11-19T21:41:47.926Z,-3.60
2022-11-19T21:44:21.000Z,-3.60
2022-11-19T21:46:49.887Z,-3.70
2022-11-19T21:49:17.921Z,-3.70
2022-11-19T21:51:46.672Z,-3.62
2022-11-19T21:54:14.424Z,-3.60
2022-11-19T21:56:42.035Z,-3.60
2022-11-19T21:59:09.811Z,-3.60
2022-11-19T22:01:37.480Z,-3.52
2022-11-19T22:04:05.396Z,-3.50
2022-11-19T22:06:33.596Z,-3.50
2022-11-19T22:09:01.892Z,-3.58
2022-11-19T22:11:29.813Z,-3.60
2022-11-19T22:14:05.959Z,-3.62
2022-11-19T22:16:39.212Z,-3.60
2022-11-19T22:19:08.468Z,-3.70
2022-11-19T22:21:36.106Z,-3.64
2022-11-19T22:24:04.476Z,-3.60
2022-11-19T22:26:32.795Z,-3.60
2022-11-19T22:29:00.486Z,-3.52
2022-11-19T22:31:28.169Z,-3.50
2022-11-19T22:33:56.047Z,-3.50
2022-11-19T22:36:23.878Z,-3.50
2022-11-19T22:38:52.642Z,-3.50
2022-11-19T22:41:22.382Z,-3.48
2022-11-19T22:43:50.980Z,-3.50
2022-11-19T22:46:20.158Z,-3.50
2022-11-19T22:48:48.410Z,-3.50
2022-11-19T22:51:23.237Z,-3.60
2022-11-19T22:53:53.380Z,-3.60
2022-11-19T22:56:25.829Z,-3.64
2022-11-19T22:58:54.070Z,-3.70
2022-11-19T23:01:27.472Z,-3.70
2022-11-19T23:03:58.102Z,-3.70
2022-11-19T23:06:26.367Z,-3.70
2022-11-19T23:08:54.766Z,-3.70
2022-11-19T23:11:42.341Z,-3.70
2022-11-19T23:14:16.132Z,-3.80
2022-11-19T23:16:44.619Z,-3.80
2022-11-19T23:19:14.914Z,-3.80
2022-11-19T23:21:42.822Z,-3.84
2022-11-19T23:24:11.440Z,-3.90
2022-11-19T23:26:39.824Z,-3.90
2022-11-19T23:29:09.285Z,-3.92
2022-11-19T23:31:40.791Z,-3.90
2022-11-19T23:34:08.982Z,-3.90
2022-11-19T23:36:39.811Z,-3.90
2022-11-19T23:39:14.019Z,-3.92
2022-11-19T23:41:42.383Z,-3.98
2022-11-19T23:44:10.093Z,-3.98
2022-11-19T23:46:38.306Z,-4.00
2022-11-19T23:49:06.166Z,-4.00
2022-11-19T23:51:37.971Z,-4.00
2022-11-19T23:54:06.357Z,-3.90
2022-11-19T23:56:36.030Z,-3.88
2022-11-19T23:59:06.023Z,-3.84
